createdAt,value
2018-07-20T00:00:31.595Z,65.19
2018-07-20T00:03:00.259Z,68.87
2018-07-20T00:05:28.787Z,68.68
2018-07-20T00:07:57.272Z,69.33
2018-07-20T00:10:25.863Z,69.02
2018-07-20T00:12:54.403Z,68.55
2018-07-20T00:15:22.811Z,68.88
2018-07-20T00:17:51.270Z,69.64
2018-07-20T00:20:19.747Z,68.73
2018-07-20T00:22:48.183Z,69.26
2018-07-20T00:25:16.650Z,69.21
2018-07-20T00:27:45.130Z,70.18
2018-07-20T00:30:13.527Z,69.95
2018-07-20T00:32:42.100Z,69.32
2018-07-20T00:35:10.503Z,69.40
2018-07-20T00:37:38.907Z,70.17
2018-07-20T00:40:07.587Z,69.32
2018-07-20T00:42:36.033Z,69.97
2018-07-20T00:45:04.437Z,70.55
2018-07-20T00:47:33.007Z,70.23
2018-07-20T00:50:01.413Z,70.88
2018-07-20T00:52:29.953Z,69.71
2018-07-20T00:54:58.837Z,70.55
2018-07-20T00:57:27.315Z,70.47
2018-07-20T00:59:55.736Z,69.65
2018-07-20T01:02:24.455Z,70.30
2018-07-20T01:04:52.903Z,70.00
2018-07-20T01:07:21.319Z,70.37
2018-07-20T01:09:49.812Z,71.30
2018-07-20T01:12:18.366Z,72.03
2018-07-20T01:14:46.824Z,70.52
2018-07-20T01:17:15.520Z,71.47
2018-07-20T01:19:44.044Z,70.56
2018-07-20T01:22:12.587Z,71.00
2018-07-20T01:24:41.114Z,71.50
2018-07-20T01:27:09.619Z,72.21
2018-07-20T01:29:38.103Z,72.25
2018-07-20T01:32:06.767Z,72.25
2018-07-20T01:34:35.231Z,71.19
2018-07-20T01:37:03.787Z,72.97
2018-07-20T01:39:32.211Z,71.21
2018-07-20T01:42:00.780Z,72.15
2018-07-20T01:44:29.273Z,72.08
2018-07-20T01:46:57.816Z,71.75
2018-07-20T01:49:26.452Z,71.73
2018-07-20T01:51:54.959Z,72.31
2018-07-20T01:54:23.543Z,72.09
2018-07-20T01:56:52.023Z,73.43
2018-07-20T01:59:20.447Z,74.37
2018-07-20T02:01:48.940Z,73.90
2018-07-20T02:04:17.399Z,73.52
2018-07-20T02:06:45.826Z,74.64
2018-07-20T02:09:14.314Z,74.43
2018-07-20T02:11:42.811Z,74.84
2018-07-20T02:14:11.287Z,75.50
2018-07-20T02:16:39.974Z,75.37
2018-07-20T02:19:08.483Z,74.84
2018-07-20T02:21:37.005Z,75.44
2018-07-20T02:24:05.955Z,74.79
2018-07-20T02:26:34.475Z,75.67
2018-07-20T02:29:02.980Z,76.68
2018-07-20T02:31:31.532Z,76.31
2018-07-20T02:33:59.981Z,75.25
2018-07-20T02:36:28.458Z,75.76
2018-07-20T02:38:57.123Z,75.38
2018-07-20T02:41:25.628Z,74.84
2018-07-20T02:43:54.431Z,75.22
2018-07-20T02:46:23.141Z,74.94
2018-07-20T02:48:51.602Z,75.48
2018-07-20T02:51:20.035Z,75.21
2018-07-20T02:53:48.696Z,75.03
2018-07-20T02:56:17.216Z,74.69
2018-07-20T02:58:45.704Z,74.83
2018-07-20T03:01:14.176Z,75.24
2018-07-20T03:03:42.718Z,75.22
2018-07-20T03:06:11.204Z,74.09
2018-07-20T03:08:39.918Z,74.27
2018-07-20T03:11:08.412Z,74.33
2018-07-20T03:13:36.884Z,76.20
2018-07-20T03:16:05.651Z,77.04
2018-07-20T03:18:34.103Z,76.16
2018-07-20T03:21:02.573Z,75.93
2018-07-20T03:23:31.243Z,75.33
2018-07-20T03:25:59.652Z,76.65
2018-07-20T03:28:28.083Z,76.06
2018-07-20T03:30:56.826Z,77.07
2018-07-20T03:33:25.349Z,77.38
2018-07-20T03:35:53.886Z,76.98
2018-07-20T03:38:22.603Z,76.96
2018-07-20T03:40:51.162Z,77.45
2018-07-20T03:43:19.775Z,77.17
2018-07-20T03:45:48.414Z,77.36
2018-07-20T03:48:17.030Z,76.55
2018-07-20T03:50:45.455Z,76.12
2018-07-20T03:53:14.395Z,75.97
2018-07-20T03:55:42.830Z,75.62
2018-07-20T03:58:11.311Z,75.36
2018-07-20T04:00:39.979Z,76.69
2018-07-20T04:03:08.380Z,76.35
2018-07-20T04:05:36.887Z,77.04
2018-07-20T04:08:05.566Z,76.92
2018-07-20T04:10:34.175Z,75.89
2018-07-20T04:13:02.671Z,77.35
2018-07-20T04:15:31.147Z,76.52
2018-07-20T04:17:59.624Z,77.45
2018-07-20T04:20:28.072Z,77.78
2018-07-20T04:22:56.531Z,77.36
2018-07-20T04:25:24.975Z,77.43
2018-07-20T04:27:53.582Z,78.35
2018-07-20T04:30:22.256Z,78.59
2018-07-20T04:32:50.741Z,78.57
2018-07-20T04:35:19.215Z,77.60
2018-07-20T04:37:47.998Z,78.08
2018-07-20T04:40:16.467Z,76.67
2018-07-20T04:42:44.875Z,76.83
2018-07-20T04:45:13.695Z,76.69
2018-07-20T04:47:42.199Z,76.96
2018-07-20T04:50:10.615Z,77.02
2018-07-20T04:52:39.269Z,78.37
2018-07-20T04:55:07.844Z,77.40
2018-07-20T04:57:36.238Z,76.96
2018-07-20T05:00:05.068Z,76.32
2018-07-20T05:02:33.500Z,76.09
2018-07-20T05:05:01.989Z,75.69
2018-07-20T05:07:30.458Z,75.48
2018-07-20T05:09:58.890Z,75.74
2018-07-20T05:12:27.366Z,74.98
2018-07-20T05:14:55.812Z,74.56
2018-07-20T05:17:24.847Z,74.23
2018-07-20T05:19:53.386Z,73.88
2018-07-20T05:22:22.025Z,72.18
2018-07-20T05:24:50.433Z,71.24
2018-07-20T05:27:18.839Z,70.86
2018-07-20T05:29:47.313Z,69.87
2018-07-20T05:32:15.811Z,67.90
2018-07-20T05:34:44.295Z,66.10
2018-07-20T05:37:12.983Z,66.91
2018-07-20T05:39:41.434Z,64.71
2018-07-20T05:42:09.848Z,63.53
2018-07-20T05:44:38.303Z,61.42
2018-07-20T05:47:06.743Z,59.83
2018-07-20T05:49:35.187Z,57.83
2018-07-20T05:52:03.952Z,57.74
2018-07-20T05:54:32.497Z,57.15
2018-07-20T05:57:01.079Z,56.18
2018-07-20T05:59:29.596Z,56.33
2018-07-20T06:01:58.048Z,55.75
2018-07-20T06:04:26.491Z,55.61
2018-07-20T06:06:55.015Z,55.38
2018-07-20T06:09:23.566Z,54.91
2018-07-20T06:11:52.035Z,54.42
2018-07-20T06:14:20.899Z,53.08
2018-07-20T06:16:49.325Z,53.99
2018-07-20T06:19:17.835Z,54.73
2018-07-20T06:21:46.336Z,53.13
2018-07-20T06:24:14.791Z,52.14
2018-07-20T06:26:43.326Z,52.07
2018-07-20T06:29:11.830Z,52.86
2018-07-20T06:31:40.349Z,52.33
2018-07-20T06:34:08.928Z,53.47
2018-07-20T06:36:37.412Z,52.86
2018-07-20T06:39:08.441Z,52.63
2018-07-20T06:41:36.962Z,52.92
2018-07-20T06:44:05.591Z,51.66
2018-07-20T06:46:34.676Z,52.06
2018-07-20T06:49:03.187Z,50.65
2018-07-20T06:51:31.740Z,51.70
2018-07-20T06:54:00.331Z,50.91
2018-07-20T06:56:28.759Z,51.60
2018-07-20T06:58:57.432Z,51.25
2018-07-20T07:01:25.895Z,51.46
2018-07-20T07:03:54.356Z,50.94
2018-07-20T07:06:23.551Z,49.43
2018-07-20T07:08:52.008Z,48.39
2018-07-20T07:11:20.579Z,48.56
2018-07-20T07:13:49.078Z,48.34
2018-07-20T07:16:17.960Z,48.87
2018-07-20T07:18:46.375Z,48.46
2018-07-20T07:21:15.044Z,48.40
2018-07-20T07:23:43.589Z,46.72
2018-07-20T07:26:11.967Z,48.30
2018-07-20T07:28:40.403Z,46.50
2018-07-20T07:31:08.847Z,46.49
2018-07-20T07:33:37.339Z,45.45
2018-07-20T07:36:05.801Z,46.30
2018-07-20T07:38:34.235Z,44.83
2018-07-20T07:41:02.795Z,43.86
2018-07-20T07:43:31.296Z,46.18
2018-07-20T07:45:59.679Z,45.91
2018-07-20T07:48:28.164Z,45.45
2018-07-20T07:50:56.587Z,48.22
2018-07-20T07:53:25.110Z,46.61
2018-07-20T07:55:53.535Z,45.60
2018-07-20T07:58:21.991Z,44.91
2018-07-20T08:00:50.591Z,44.22
2018-07-20T08:03:19.360Z,44.68
2018-07-20T08:05:47.781Z,43.89
2018-07-20T08:08:16.262Z,44.42
2018-07-20T08:10:44.812Z,43.85
2018-07-20T08:13:13.215Z,42.92
2018-07-20T08:15:41.676Z,42.04
2018-07-20T08:18:10.315Z,41.10
2018-07-20T08:20:38.763Z,41.36
2018-07-20T08:23:07.217Z,42.03
2018-07-20T08:25:35.792Z,41.95
2018-07-20T08:28:04.663Z,40.36
2018-07-20T08:30:33.367Z,39.64
2018-07-20T08:33:02.511Z,40.13
2018-07-20T08:35:31.175Z,40.00
2018-07-20T08:37:59.619Z,40.62
2018-07-20T08:40:28.522Z,40.05
2018-07-20T08:42:56.936Z,39.98
2018-07-20T08:45:25.459Z,41.15
2018-07-20T08:47:53.957Z,39.55
2018-07-20T08:50:22.370Z,40.03
2018-07-20T08:52:50.799Z,39.32
2018-07-20T08:55:19.287Z,38.71
2018-07-20T08:57:47.787Z,39.76
2018-07-20T09:00:16.275Z,38.02
2018-07-20T09:02:44.996Z,39.47
2018-07-20T09:05:13.487Z,39.93
2018-07-20T09:07:41.962Z,39.49
2018-07-20T09:10:10.717Z,38.62
2018-07-20T09:12:39.103Z,37.52
2018-07-20T09:15:07.528Z,37.42
2018-07-20T09:17:36.071Z,36.58
2018-07-20T09:20:04.860Z,36.72
2018-07-20T09:22:33.359Z,37.61
2018-07-20T09:25:02.020Z,37.98
2018-07-20T09:27:30.545Z,36.97
2018-07-20T09:29:59.007Z,36.23
2018-07-20T09:32:27.583Z,36.07
2018-07-20T09:34:56.115Z,35.53
2018-07-20T09:37:24.497Z,36.77
2018-07-20T09:39:53.007Z,36.10
2018-07-20T09:42:21.513Z,36.76
2018-07-20T09:44:49.979Z,34.51
2018-07-20T09:47:18.451Z,34.54
2018-07-20T09:49:47.127Z,33.87
2018-07-20T09:52:15.516Z,34.22
2018-07-20T09:54:43.952Z,32.97
2018-07-20T09:57:12.468Z,33.37
2018-07-20T09:59:40.969Z,33.80
2018-07-20T10:02:09.455Z,33.05
2018-07-20T10:04:38.159Z,32.94
2018-07-20T10:07:06.635Z,32.55
2018-07-20T10:09:35.143Z,31.25
2018-07-20T10:12:03.611Z,29.58
2018-07-20T10:14:32.151Z,28.18
2018-07-20T10:17:00.772Z,29.09
2018-07-20T10:19:29.224Z,28.87
2018-07-20T10:21:57.679Z,28.66
2018-07-20T10:24:26.394Z,28.86
2018-07-20T10:26:54.900Z,27.81
2018-07-20T10:29:23.315Z,28.44
2018-07-20T10:31:51.947Z,28.52
2018-07-20T10:34:20.373Z,28.46
2018-07-20T10:36:48.893Z,28.20
2018-07-20T10:39:17.459Z,27.85
2018-07-20T10:41:45.896Z,28.58
2018-07-20T10:44:14.451Z,28.09
2018-07-20T10:46:42.951Z,27.64
2018-07-20T10:49:11.352Z,27.51
2018-07-20T10:51:39.867Z,27.30
2018-07-20T10:54:08.319Z,27.63
2018-07-20T10:56:36.863Z,27.58
2018-07-20T10:59:05.367Z,27.61
2018-07-20T11:01:33.911Z,26.17
2018-07-20T11:04:02.430Z,26.79
2018-07-20T11:06:30.927Z,26.37
2018-07-20T11:08:59.419Z,25.01
2018-07-20T11:11:27.901Z,25.34
2018-07-20T11:13:56.535Z,25.49
2018-07-20T11:16:24.959Z,26.28
2018-07-20T11:18:53.353Z,25.26
2018-07-20T11:21:21.803Z,25.44
2018-07-20T11:23:50.407Z,25.84
2018-07-20T11:26:18.874Z,26.05
2018-07-20T11:28:47.345Z,25.64
2018-07-20T11:31:15.998Z,26.38
2018-07-20T11:33:44.438Z,25.91
2018-07-20T11:36:12.943Z,25.39
2018-07-20T11:38:41.459Z,24.75
2018-07-20T11:41:09.895Z,25.40
2018-07-20T11:43:38.331Z,26.18
2018-07-20T11:46:07.079Z,26.11
2018-07-20T11:48:35.544Z,25.92
2018-07-20T11:51:03.999Z,25.77
2018-07-20T11:53:32.562Z,26.00
2018-07-20T11:56:01.317Z,25.15
2018-07-20T11:58:29.804Z,24.83
2018-07-20T12:00:58.287Z,24.63
2018-07-20T12:03:26.659Z,26.07
2018-07-20T12:05:55.151Z,25.89
2018-07-20T12:08:23.859Z,25.86
2018-07-20T12:10:52.363Z,26.23
2018-07-20T12:13:20.835Z,25.17
2018-07-20T12:15:49.239Z,24.79
2018-07-20T12:18:17.715Z,24.34
2018-07-20T12:20:46.245Z,25.19
2018-07-20T12:23:14.814Z,25.29
2018-07-20T12:25:43.342Z,24.07
2018-07-20T12:28:11.776Z,24.43
2018-07-20T12:30:40.377Z,24.98
2018-07-20T12:33:08.919Z,24.37
2018-07-20T12:35:37.540Z,25.06
2018-07-20T12:38:06.209Z,24.61
2018-07-20T12:40:34.687Z,25.04
2018-07-20T12:43:03.209Z,25.55
2018-07-20T12:45:32.184Z,25.82
2018-07-20T12:48:01.048Z,25.15
2018-07-20T12:50:29.685Z,24.48
2018-07-20T12:52:58.279Z,25.36
2018-07-20T12:55:26.775Z,25.37
2018-07-20T12:57:55.276Z,25.02
2018-07-20T13:00:24.043Z,25.12
2018-07-20T13:02:53.591Z,25.62
2018-07-20T13:05:22.123Z,24.83
2018-07-20T13:07:50.963Z,25.13
2018-07-20T13:10:19.387Z,25.35
2018-07-20T13:12:47.863Z,26.37
2018-07-20T13:15:16.392Z,26.10
2018-07-20T13:17:44.864Z,25.00
2018-07-20T13:20:13.327Z,25.25
2018-07-20T13:22:42.155Z,26.52
2018-07-20T13:25:10.679Z,26.22
2018-07-20T13:27:39.066Z,24.75
2018-07-20T13:30:08.955Z,25.62
2018-07-20T13:32:37.524Z,25.36
2018-07-20T13:35:06.705Z,25.38
2018-07-20T13:37:35.197Z,25.52
2018-07-20T13:40:03.638Z,26.40
2018-07-20T13:42:32.153Z,23.83
2018-07-20T13:45:00.576Z,24.16
2018-07-20T13:47:29.031Z,23.95
2018-07-20T13:49:57.444Z,24.61
2018-07-20T13:52:25.964Z,24.43
2018-07-20T13:54:54.415Z,25.51
2018-07-20T13:57:22.875Z,24.62
2018-07-20T13:59:51.456Z,25.00
2018-07-20T14:02:19.911Z,24.67
2018-07-20T14:04:48.383Z,24.36
2018-07-20T14:07:16.800Z,24.87
2018-07-20T14:09:45.218Z,24.98
2018-07-20T14:12:13.815Z,25.15
2018-07-20T14:14:42.647Z,24.37
2018-07-20T14:17:11.183Z,24.52
2018-07-20T14:19:39.680Z,24.86
2018-07-20T14:22:08.647Z,26.00
2018-07-20T14:24:37.094Z,26.25
2018-07-20T14:27:05.599Z,25.36
2018-07-20T14:29:34.256Z,26.53
2018-07-20T14:32:02.809Z,25.72
2018-07-20T14:34:31.301Z,25.89
2018-07-20T14:36:59.713Z,25.22
2018-07-20T14:39:28.231Z,25.55
2018-07-20T14:41:56.719Z,25.67
2018-07-20T14:44:25.134Z,24.18
2018-07-20T14:46:53.615Z,25.35
2018-07-20T14:49:22.043Z,25.05
2018-07-20T14:51:50.875Z,25.20
2018-07-20T14:54:19.343Z,24.54
2018-07-20T14:56:47.775Z,25.56
2018-07-20T14:59:16.315Z,24.63
2018-07-20T15:01:44.801Z,24.85
2018-07-20T15:04:13.420Z,25.42
2018-07-20T15:06:41.895Z,25.39
2018-07-20T15:09:12.152Z,23.77
2018-07-20T15:11:40.843Z,24.47
2018-07-20T15:14:09.522Z,24.07
2018-07-20T15:16:37.935Z,25.19
2018-07-20T15:19:06.975Z,24.74
2018-07-20T15:21:35.881Z,23.69
2018-07-20T15:24:04.430Z,25.10
2018-07-20T15:26:33.154Z,23.24
2018-07-20T15:29:01.785Z,25.20
2018-07-20T15:31:30.195Z,25.20
2018-07-20T15:33:58.699Z,24.85
2018-07-20T15:36:27.330Z,25.33
2018-07-20T15:38:55.779Z,26.33
2018-07-20T15:41:24.271Z,26.37
2018-07-20T15:43:52.809Z,26.55
2018-07-20T15:46:21.291Z,26.18
2018-07-20T15:48:49.688Z,24.97
2018-07-20T15:51:18.319Z,25.72
2018-07-20T15:53:47.709Z,24.89
2018-07-20T15:56:16.139Z,25.45
2018-07-20T15:58:44.560Z,24.93
2018-07-20T16:01:13.035Z,25.99
2018-07-20T16:03:41.535Z,26.92
2018-07-20T16:06:10.096Z,26.82
2018-07-20T16:08:38.500Z,25.54
2018-07-20T16:11:07.148Z,25.89
2018-07-20T16:13:35.804Z,25.94
2018-07-20T16:16:04.505Z,25.54
2018-07-20T16:18:32.907Z,25.34
2018-07-20T16:21:01.467Z,25.39
2018-07-20T16:23:30.010Z,25.88
2018-07-20T16:25:58.663Z,25.66
2018-07-20T16:28:27.264Z,25.54
2018-07-20T16:30:55.739Z,26.19
2018-07-20T16:33:24.183Z,26.87
2018-07-20T16:35:52.808Z,25.73
2018-07-20T16:38:21.310Z,26.01
2018-07-20T16:40:49.796Z,24.89
2018-07-20T16:43:18.187Z,26.54
2018-07-20T16:45:46.644Z,26.10
2018-07-20T16:48:15.148Z,25.15
2018-07-20T16:50:44.120Z,25.92
2018-07-20T16:53:12.539Z,25.47
2018-07-20T16:55:41.121Z,25.90
2018-07-20T16:58:09.648Z,25.14
2018-07-20T17:00:38.058Z,26.49
2018-07-20T17:03:06.500Z,25.61
2018-07-20T17:05:34.962Z,25.60
2018-07-20T17:08:03.392Z,26.48
2018-07-20T17:10:31.876Z,26.33
2018-07-20T17:13:00.276Z,27.16
2018-07-20T17:15:28.732Z,28.34
2018-07-20T17:17:57.182Z,26.58
2018-07-20T17:20:26.055Z,27.17
2018-07-20T17:22:54.471Z,27.68
2018-07-20T17:25:22.959Z,27.38
2018-07-20T17:27:51.440Z,26.97
2018-07-20T17:30:19.875Z,27.12
2018-07-20T17:32:48.335Z,28.41
2018-07-20T17:35:17.019Z,27.79
2018-07-20T17:37:45.535Z,29.10
2018-07-20T17:40:13.955Z,28.95
2018-07-20T17:42:42.467Z,28.52
2018-07-20T17:45:10.998Z,28.27
2018-07-20T17:47:39.461Z,28.42
2018-07-20T17:50:08.311Z,28.27
2018-07-20T17:52:36.795Z,28.06
2018-07-20T17:55:05.199Z,27.68
2018-07-20T17:57:33.815Z,28.41
2018-07-20T18:00:02.500Z,27.02
2018-07-20T18:02:30.996Z,28.40
2018-07-20T18:04:59.549Z,28.71
2018-07-20T18:07:27.993Z,30.36
2018-07-20T18:09:56.468Z,28.96
2018-07-20T18:12:25.039Z,30.77
2018-07-20T18:14:53.715Z,31.10
2018-07-20T18:17:22.111Z,31.08
2018-07-20T18:19:50.710Z,31.25
2018-07-20T18:22:19.276Z,31.95
2018-07-20T18:24:47.729Z,31.73
2018-07-20T18:27:16.478Z,33.59
2018-07-20T18:29:44.804Z,33.93
2018-07-20T18:32:13.218Z,33.23
2018-07-20T18:34:41.915Z,34.05
2018-07-20T18:37:10.343Z,33.07
2018-07-20T18:39:38.811Z,34.18
2018-07-20T18:42:07.369Z,34.19
2018-07-20T18:44:35.791Z,33.56
2018-07-20T18:47:04.319Z,33.85
2018-07-20T18:49:32.791Z,34.60
2018-07-20T18:52:01.293Z,34.18
2018-07-20T18:54:29.692Z,34.80
2018-07-20T18:56:58.103Z,35.39
2018-07-20T18:59:26.603Z,36.41
2018-07-20T19:01:55.000Z,38.03
2018-07-20T19:04:23.635Z,38.10
2018-07-20T19:06:52.071Z,39.69
2018-07-20T19:09:20.539Z,39.60
2018-07-20T19:11:49.039Z,40.16
2018-07-20T19:14:17.554Z,40.41
2018-07-20T19:16:46.016Z,40.30
2018-07-20T19:19:14.579Z,39.47
2018-07-20T19:21:43.172Z,38.89
2018-07-20T19:24:11.795Z,39.71
2018-07-20T19:26:40.785Z,37.48
2018-07-20T19:29:09.227Z,37.33
2018-07-20T19:31:37.711Z,37.72
2018-07-20T19:34:06.367Z,37.11
2018-07-20T19:36:34.773Z,37.52
2018-07-20T19:39:03.918Z,36.88
2018-07-20T19:41:32.876Z,37.89
2018-07-20T19:44:01.299Z,35.93
2018-07-20T19:46:29.940Z,36.63
2018-07-20T19:48:58.464Z,36.71
2018-07-20T19:51:26.880Z,37.43
2018-07-20T19:53:55.378Z,38.72
2018-07-20T19:56:23.921Z,39.11
2018-07-20T19:58:52.411Z,39.71
2018-07-20T20:01:20.843Z,39.60
2018-07-20T20:03:49.279Z,40.18
2018-07-20T20:06:17.727Z,40.82
2018-07-20T20:08:46.259Z,38.51
2018-07-20T20:11:14.723Z,39.74
2018-07-20T20:13:43.237Z,39.02
2018-07-20T20:16:11.698Z,40.26
2018-07-20T20:18:40.123Z,41.24
2018-07-20T20:21:08.597Z,41.13
2018-07-20T20:23:37.085Z,40.87
2018-07-20T20:26:05.966Z,41.42
2018-07-20T20:28:34.643Z,41.30
2018-07-20T20:31:03.048Z,40.46
2018-07-20T20:33:31.655Z,40.76
2018-07-20T20:36:00.169Z,41.81
2018-07-20T20:38:28.589Z,41.87
2018-07-20T20:40:57.079Z,41.04
2018-07-20T20:43:25.772Z,40.26
2018-07-20T20:45:54.150Z,39.21
2018-07-20T20:48:22.669Z,39.02
2018-07-20T20:50:51.145Z,40.17
2018-07-20T20:53:19.579Z,39.28
2018-07-20T20:55:48.311Z,39.44
2018-07-20T20:58:16.724Z,40.40
2018-07-20T21:00:45.263Z,39.78
2018-07-20T21:03:13.707Z,40.64
2018-07-20T21:05:42.092Z,41.42
2018-07-20T21:08:10.638Z,41.34
2018-07-20T21:10:39.327Z,43.02
2018-07-20T21:13:07.825Z,42.92
2018-07-20T21:15:36.271Z,43.63
2018-07-20T21:18:05.150Z,42.96
2018-07-20T21:20:33.571Z,44.40
2018-07-20T21:23:02.175Z,43.62
2018-07-20T21:25:30.858Z,43.03
2018-07-20T21:27:59.275Z,42.45
2018-07-20T21:30:27.766Z,43.56
2018-07-20T21:32:56.419Z,44.13
2018-07-20T21:35:24.851Z,44.74
2018-07-20T21:37:53.335Z,42.83
2018-07-20T21:40:21.846Z,43.45
2018-07-20T21:42:50.339Z,42.60
2018-07-20T21:45:18.892Z,43.17
2018-07-20T21:47:47.342Z,43.80
2018-07-20T21:50:15.815Z,43.89
2018-07-20T21:52:44.203Z,43.91
2018-07-20T21:55:12.859Z,44.43
2018-07-20T21:57:41.319Z,43.96
2018-07-20T22:00:16.328Z,46.15
2018-07-20T22:02:44.751Z,47.37
2018-07-20T22:05:13.260Z,45.68
2018-07-20T22:07:41.904Z,45.47
2018-07-20T22:10:10.471Z,44.90
2018-07-20T22:12:38.869Z,44.86
2018-07-20T22:15:08.515Z,46.23
2018-07-20T22:17:37.062Z,46.20
2018-07-20T22:20:06.468Z,46.51
2018-07-20T22:22:35.314Z,48.76
2018-07-20T22:25:04.092Z,48.20
2018-07-20T22:27:32.565Z,49.11
2018-07-20T22:30:01.153Z,47.64
2018-07-20T22:32:29.579Z,49.80
2018-07-20T22:34:58.031Z,49.71
2018-07-20T22:37:26.512Z,49.37
2018-07-20T22:39:54.958Z,48.92
2018-07-20T22:42:23.503Z,49.33
2018-07-20T22:44:52.080Z,49.38
2018-07-20T22:47:20.611Z,49.14
2018-07-20T22:49:49.083Z,49.98
2018-07-20T22:52:17.925Z,50.06
2018-07-20T22:54:46.639Z,49.63
2018-07-20T22:57:15.087Z,48.87
2018-07-20T22:59:43.595Z,51.22
2018-07-20T23:02:12.100Z,50.82
2018-07-20T23:04:40.593Z,50.47
2018-07-20T23:07:09.123Z,51.87
2018-07-20T23:09:37.549Z,51.96
2018-07-20T23:12:06.088Z,52.88
2018-07-20T23:14:34.749Z,51.42
2018-07-20T23:17:03.159Z,52.97
2018-07-20T23:19:31.623Z,52.14
2018-07-20T23:22:00.507Z,53.38
2018-07-20T23:24:28.971Z,52.33
2018-07-20T23:26:57.452Z,53.24
2018-07-20T23:29:27.410Z,54.39
2018-07-20T23:31:55.815Z,53.81
2018-07-20T23:34:24.215Z,53.38
2018-07-20T23:36:52.840Z,53.56
2018-07-20T23:39:21.319Z,54.53
2018-07-20T23:41:49.849Z,56.02
2018-07-20T23:44:18.599Z,56.58
2018-07-20T23:46:47.047Z,57.21
2018-07-20T23:49:15.540Z,56.50
2018-07-20T23:51:44.178Z,56.85
2018-07-20T23:54:12.700Z,57.93
2018-07-20T23:56:41.091Z,57.20
2018-07-20T23:59:09.609Z,57.68
